sensor_id;sensor_type;location;lat;lon;timestamp;P1;durP1;ratioP1;P2;durP2;ratioP2
37231;SDS011;23125;48.156;15.954;2023-07-29T00:00:43;3.72;;;1.75;;
37231;SDS011;23125;48.156;15.954;2023-07-29T00:03:09;2.08;;;1.58;;
37231;SDS011;23125;48.156;15.954;2023-07-29T00:05:36;2.58;;;1.60;;
37231;SDS011;23125;48.156;15.954;2023-07-29T00:08:03;2.38;;;1.75;;
37231;SDS011;23125;48.156;15.954;2023-07-29T00:10:31;2.63;;;1.58;;
37231;SDS011;23125;48.156;15.954;2023-07-29T00:12:58;2.33;;;1.90;;
37231;SDS011;23125;48.156;15.954;2023-07-29T00:15:24;2.22;;;1.52;;
37231;SDS011;23125;48.156;15.954;2023-07-29T00:17:50;2.40;;;1.30;;
37231;SDS011;23125;48.156;15.954;2023-07-29T00:20:16;3.47;;;1.55;;
37231;SDS011;23125;48.156;15.954;2023-07-29T00:22:42;2.08;;;1.60;;
37231;SDS011;23125;48.156;15.954;2023-07-29T00:25:07;3.92;;;1.60;;
37231;SDS011;23125;48.156;15.954;2023-07-29T00:27:33;2.00;;;1.38;;
37231;SDS011;23125;48.156;15.954;2023-07-29T00:29:59;3.88;;;1.60;;
37231;SDS011;23125;48.156;15.954;2023-07-29T00:32:26;2.17;;;1.73;;
37231;SDS011;23125;48.156;15.954;2023-07-29T00:34:54;3.15;;;2.28;;
37231;SDS011;23125;48.156;15.954;2023-07-29T00:37:20;2.60;;;1.77;;
37231;SDS011;23125;48.156;15.954;2023-07-29T00:39:46;2.78;;;1.65;;
37231;SDS011;23125;48.156;15.954;2023-07-29T00:42:12;2.55;;;1.65;;
37231;SDS011;23125;48.156;15.954;2023-07-29T00:44:38;1.92;;;1.60;;
37231;SDS011;23125;48.156;15.954;2023-07-29T00:47:04;3.95;;;1.90;;
37231;SDS011;23125;48.156;15.954;2023-07-29T00:49:31;2.53;;;1.80;;
37231;SDS011;23125;48.156;15.954;2023-07-29T00:51:58;2.72;;;1.90;;
37231;SDS011;23125;48.156;15.954;2023-07-29T00:54:24;3.10;;;1.70;;
37231;SDS011;23125;48.156;15.954;2023-07-29T00:56:50;2.28;;;1.83;;
37231;SDS011;23125;48.156;15.954;2023-07-29T00:59:16;4.22;;;2.10;;
37231;SDS011;23125;48.156;15.954;2023-07-29T01:01:42;2.38;;;1.45;;
37231;SDS011;23125;48.156;15.954;2023-07-29T01:04:08;2.30;;;1.70;;
37231;SDS011;23125;48.156;15.954;2023-07-29T01:09:33;3.42;;;1.95;;
37231;SDS011;23125;48.156;15.954;2023-07-29T01:17:33;4.03;;;1.98;;
37231;SDS011;23125;48.156;15.954;2023-07-29T01:20:09;2.53;;;1.85;;
37231;SDS011;23125;48.156;15.954;2023-07-29T01:22:39;2.47;;;1.88;;
37231;SDS011;23125;48.156;15.954;2023-07-29T01:25:06;3.15;;;2.03;;
37231;SDS011;23125;48.156;15.954;2023-07-29T01:27:32;3.00;;;2.20;;
37231;SDS011;23125;48.156;15.954;2023-07-29T01:29:58;2.88;;;1.90;;
37231;SDS011;23125;48.156;15.954;2023-07-29T01:32:28;3.05;;;1.90;;
37231;SDS011;23125;48.156;15.954;2023-07-29T01:36:07;4.10;;;2.00;;
37231;SDS011;23125;48.156;15.954;2023-07-29T01:38:18;3.47;;;1.88;;
37231;SDS011;23125;48.156;15.954;2023-07-29T01:40:48;4.30;;;2.08;;
37231;SDS011;23125;48.156;15.954;2023-07-29T01:43:16;3.85;;;2.20;;
37231;SDS011;23125;48.156;15.954;2023-07-29T01:45:44;4.78;;;2.20;;
37231;SDS011;23125;48.156;15.954;2023-07-29T01:48:10;3.72;;;2.42;;
37231;SDS011;23125;48.156;15.954;2023-07-29T01:50:36;3.03;;;2.33;;
37231;SDS011;23125;48.156;15.954;2023-07-29T01:53:01;2.92;;;2.13;;
37231;SDS011;23125;48.156;15.954;2023-07-29T01:55:28;3.97;;;2.00;;
37231;SDS011;23125;48.156;15.954;2023-07-29T01:57:54;2.70;;;1.88;;
37231;SDS011;23125;48.156;15.954;2023-07-29T02:00:20;2.97;;;2.13;;
37231;SDS011;23125;48.156;15.954;2023-07-29T02:02:46;3.30;;;2.20;;
37231;SDS011;23125;48.156;15.954;2023-07-29T02:05:12;3.80;;;1.85;;
37231;SDS011;23125;48.156;15.954;2023-07-29T02:07:38;3.00;;;1.75;;
37231;SDS011;23125;48.156;15.954;2023-07-29T02:10:04;3.50;;;2.22;;
37231;SDS011;23125;48.156;15.954;2023-07-29T02:12:30;3.08;;;1.98;;
37231;SDS011;23125;48.156;15.954;2023-07-29T02:14:56;5.65;;;2.40;;
37231;SDS011;23125;48.156;15.954;2023-07-29T02:17:22;2.65;;;1.88;;
37231;SDS011;23125;48.156;15.954;2023-07-29T02:19:48;3.67;;;1.85;;
37231;SDS011;23125;48.156;15.954;2023-07-29T02:22:14;3.75;;;2.50;;
37231;SDS011;23125;48.156;15.954;2023-07-29T02:24:41;4.10;;;2.13;;
37231;SDS011;23125;48.156;15.954;2023-07-29T02:27:07;3.15;;;1.92;;
37231;SDS011;23125;48.156;15.954;2023-07-29T02:29:33;4.18;;;2.13;;
37231;SDS011;23125;48.156;15.954;2023-07-29T02:31:59;3.33;;;2.08;;
37231;SDS011;23125;48.156;15.954;2023-07-29T02:34:26;3.03;;;1.95;;
37231;SDS011;23125;48.156;15.954;2023-07-29T02:36:51;4.20;;;1.98;;
37231;SDS011;23125;48.156;15.954;2023-07-29T02:39:17;3.92;;;2.13;;
37231;SDS011;23125;48.156;15.954;2023-07-29T02:41:43;3.00;;;1.75;;
37231;SDS011;23125;48.156;15.954;2023-07-29T02:44:09;2.67;;;1.98;;
37231;SDS011;23125;48.156;15.954;2023-07-29T02:46:35;2.65;;;2.00;;
37231;SDS011;23125;48.156;15.954;2023-07-29T02:49:03;3.00;;;1.70;;
37231;SDS011;23125;48.156;15.954;2023-07-29T02:51:29;2.65;;;2.05;;
37231;SDS011;23125;48.156;15.954;2023-07-29T02:53:56;2.80;;;2.10;;
37231;SDS011;23125;48.156;15.954;2023-07-29T02:56:22;2.67;;;1.83;;
37231;SDS011;23125;48.156;15.954;2023-07-29T02:58:48;2.47;;;1.75;;
37231;SDS011;23125;48.156;15.954;2023-07-29T03:01:13;2.40;;;1.50;;
37231;SDS011;23125;48.156;15.954;2023-07-29T03:03:39;3.42;;;2.08;;
37231;SDS011;23125;48.156;15.954;2023-07-29T03:06:09;3.25;;;1.98;;
37231;SDS011;23125;48.156;15.954;2023-07-29T03:08:36;2.53;;;1.50;;
37231;SDS011;23125;48.156;15.954;2023-07-29T03:11:15;3.78;;;2.15;;
37231;SDS011;23125;48.156;15.954;2023-07-29T03:16:08;2.30;;;1.38;;
37231;SDS011;23125;48.156;15.954;2023-07-29T03:18:35;2.92;;;1.73;;
37231;SDS011;23125;48.156;15.954;2023-07-29T03:21:02;2.78;;;1.80;;
37231;SDS011;23125;48.156;15.954;2023-07-29T03:23:29;2.35;;;1.75;;
37231;SDS011;23125;48.156;15.954;2023-07-29T03:25:56;3.03;;;1.95;;
37231;SDS011;23125;48.156;15.954;2023-07-29T03:28:27;3.67;;;1.65;;
37231;SDS011;23125;48.156;15.954;2023-07-29T03:30:55;3.60;;;1.98;;
37231;SDS011;23125;48.156;15.954;2023-07-29T03:33:25;3.20;;;2.08;;
37231;SDS011;23125;48.156;15.954;2023-07-29T03:38:17;2.25;;;1.70;;
37231;SDS011;23125;48.156;15.954;2023-07-29T03:40:43;2.70;;;2.05;;
37231;SDS011;23125;48.156;15.954;2023-07-29T03:43:10;2.97;;;1.70;;
37231;SDS011;23125;48.156;15.954;2023-07-29T03:45:36;3.13;;;1.95;;
37231;SDS011;23125;48.156;15.954;2023-07-29T03:48:03;2.60;;;1.55;;
37231;SDS011;23125;48.156;15.954;2023-07-29T03:50:29;3.28;;;1.80;;
37231;SDS011;23125;48.156;15.954;2023-07-29T03:52:56;2.30;;;1.45;;
37231;SDS011;23125;48.156;15.954;2023-07-29T03:55:22;2.47;;;1.60;;
37231;SDS011;23125;48.156;15.954;2023-07-29T03:57:48;3.22;;;1.67;;
37231;SDS011;23125;48.156;15.954;2023-07-29T04:00:14;2.92;;;1.83;;
37231;SDS011;23125;48.156;15.954;2023-07-29T04:02:41;2.67;;;1.83;;
37231;SDS011;23125;48.156;15.954;2023-07-29T04:05:07;2.45;;;1.85;;
37231;SDS011;23125;48.156;15.954;2023-07-29T04:07:36;2.20;;;1.63;;
37231;SDS011;23125;48.156;15.954;2023-07-29T04:10:02;2.47;;;1.80;;
37231;SDS011;23125;48.156;15.954;2023-07-29T04:12:30;2.42;;;1.65;;
37231;SDS011;23125;48.156;15.954;2023-07-29T04:14:56;2.35;;;1.45;;
37231;SDS011;23125;48.156;15.954;2023-07-29T04:17:21;3.05;;;1.60;;
37231;SDS011;23125;48.156;15.954;2023-07-29T04:19:47;2.42;;;1.70;;
37231;SDS011;23125;48.156;15.954;2023-07-29T04:22:14;2.50;;;1.50;;
37231;SDS011;23125;48.156;15.954;2023-07-29T04:24:40;2.92;;;1.80;;
37231;SDS011;23125;48.156;15.954;2023-07-29T04:27:06;2.67;;;1.40;;
37231;SDS011;23125;48.156;15.954;2023-07-29T04:29:32;2.47;;;1.35;;
37231;SDS011;23125;48.156;15.954;2023-07-29T04:32:01;2.25;;;1.30;;
37231;SDS011;23125;48.156;15.954;2023-07-29T04:34:28;2.88;;;1.65;;
37231;SDS011;23125;48.156;15.954;2023-07-29T04:36:54;2.85;;;1.77;;
37231;SDS011;23125;48.156;15.954;2023-07-29T04:39:20;2.97;;;1.65;;
37231;SDS011;23125;48.156;15.954;2023-07-29T04:41:46;2.17;;;1.40;;
37231;SDS011;23125;48.156;15.954;2023-07-29T04:44:12;2.67;;;1.65;;
37231;SDS011;23125;48.156;15.954;2023-07-29T04:46:37;1.75;;;1.10;;
37231;SDS011;23125;48.156;15.954;2023-07-29T04:49:04;2.13;;;1.38;;
37231;SDS011;23125;48.156;15.954;2023-07-29T04:51:30;2.47;;;1.40;;
37231;SDS011;23125;48.156;15.954;2023-07-29T04:53:59;4.60;;;1.45;;
37231;SDS011;23125;48.156;15.954;2023-07-29T04:56:25;1.77;;;1.38;;
37231;SDS011;23125;48.156;15.954;2023-07-29T04:58:51;2.03;;;1.50;;
37231;SDS011;23125;48.156;15.954;2023-07-29T05:01:18;2.83;;;1.40;;
37231;SDS011;23125;48.156;15.954;2023-07-29T05:03:44;2.47;;;1.40;;
37231;SDS011;23125;48.156;15.954;2023-07-29T05:06:10;2.50;;;1.38;;
37231;SDS011;23125;48.156;15.954;2023-07-29T05:08:36;2.22;;;1.40;;
37231;SDS011;23125;48.156;15.954;2023-07-29T05:11:02;3.20;;;1.60;;
37231;SDS011;23125;48.156;15.954;2023-07-29T05:13:28;2.33;;;1.35;;
37231;SDS011;23125;48.156;15.954;2023-07-29T05:15:54;2.20;;;1.63;;
37231;SDS011;23125;48.156;15.954;2023-07-29T05:18:19;1.90;;;1.33;;
37231;SDS011;23125;48.156;15.954;2023-07-29T05:20:46;1.95;;;1.45;;
37231;SDS011;23125;48.156;15.954;2023-07-29T05:23:13;2.45;;;1.10;;
37231;SDS011;23125;48.156;15.954;2023-07-29T05:25:38;2.38;;;1.42;;
37231;SDS011;23125;48.156;15.954;2023-07-29T05:28:04;2.85;;;1.05;;
37231;SDS011;23125;48.156;15.954;2023-07-29T05:30:31;2.03;;;1.13;;
37231;SDS011;23125;48.156;15.954;2023-07-29T05:33:02;2.05;;;1.30;;
37231;SDS011;23125;48.156;15.954;2023-07-29T05:35:29;2.03;;;1.00;;
37231;SDS011;23125;48.156;15.954;2023-07-29T05:37:55;2.05;;;1.00;;
37231;SDS011;23125;48.156;15.954;2023-07-29T05:40:21;1.55;;;1.00;;
37231;SDS011;23125;48.156;15.954;2023-07-29T05:42:47;2.00;;;1.10;;
37231;SDS011;23125;48.156;15.954;2023-07-29T05:45:13;1.48;;;1.00;;
37231;SDS011;23125;48.156;15.954;2023-07-29T05:47:39;1.98;;;0.90;;
37231;SDS011;23125;48.156;15.954;2023-07-29T05:50:05;1.63;;;1.13;;
37231;SDS011;23125;48.156;15.954;2023-07-29T05:52:31;1.67;;;1.00;;
37231;SDS011;23125;48.156;15.954;2023-07-29T05:54:57;4.22;;;1.10;;
37231;SDS011;23125;48.156;15.954;2023-07-29T05:57:23;1.70;;;1.10;;
37231;SDS011;23125;48.156;15.954;2023-07-29T05:59:49;3.13;;;1.10;;
37231;SDS011;23125;48.156;15.954;2023-07-29T06:02:15;1.52;;;0.90;;
37231;SDS011;23125;48.156;15.954;2023-07-29T06:04:41;1.80;;;0.80;;
37231;SDS011;23125;48.156;15.954;2023-07-29T06:07:07;1.33;;;0.85;;
37231;SDS011;23125;48.156;15.954;2023-07-29T06:09:32;1.50;;;1.08;;
37231;SDS011;23125;48.156;15.954;2023-07-29T06:11:58;3.05;;;1.15;;
37231;SDS011;23125;48.156;15.954;2023-07-29T06:14:24;1.50;;;1.00;;
37231;SDS011;23125;48.156;15.954;2023-07-29T06:16:50;1.40;;;0.80;;
37231;SDS011;23125;48.156;15.954;2023-07-29T06:19:16;1.67;;;0.80;;
37231;SDS011;23125;48.156;15.954;2023-07-29T06:21:43;1.20;;;0.82;;
37231;SDS011;23125;48.156;15.954;2023-07-29T06:24:09;1.08;;;0.93;;
37231;SDS011;23125;48.156;15.954;2023-07-29T06:26:35;1.70;;;0.98;;
37231;SDS011;23125;48.156;15.954;2023-07-29T06:29:01;1.52;;;0.63;;
37231;SDS011;23125;48.156;15.954;2023-07-29T06:31:26;1.05;;;0.80;;
37231;SDS011;23125;48.156;15.954;2023-07-29T06:33:52;1.77;;;1.10;;
37231;SDS011;23125;48.156;15.954;2023-07-29T06:36:19;2.50;;;1.00;;
37231;SDS011;23125;48.156;15.954;2023-07-29T06:38:45;1.63;;;1.50;;
37231;SDS011;23125;48.156;15.954;2023-07-29T06:41:11;2.00;;;1.90;;
37231;SDS011;23125;48.156;15.954;2023-07-29T06:43:37;2.85;;;2.15;;
37231;SDS011;23125;48.156;15.954;2023-07-29T06:46:03;1.30;;;1.08;;
37231;SDS011;23125;48.156;15.954;2023-07-29T06:48:29;1.48;;;1.35;;
37231;SDS011;23125;48.156;15.954;2023-07-29T06:50:54;1.52;;;1.42;;
37231;SDS011;23125;48.156;15.954;2023-07-29T06:53:25;1.30;;;1.20;;
37231;SDS011;23125;48.156;15.954;2023-07-29T06:55:51;1.75;;;1.10;;
37231;SDS011;23125;48.156;15.954;2023-07-29T06:58:17;1.52;;;1.13;;
37231;SDS011;23125;48.156;15.954;2023-07-29T07:00:44;1.63;;;1.00;;
37231;SDS011;23125;48.156;15.954;2023-07-29T07:03:10;0.90;;;0.70;;
37231;SDS011;23125;48.156;15.954;2023-07-29T07:05:35;1.00;;;0.80;;
37231;SDS011;23125;48.156;15.954;2023-07-29T07:08:01;2.20;;;0.70;;
37231;SDS011;23125;48.156;15.954;2023-07-29T07:10:27;1.50;;;0.70;;
37231;SDS011;23125;48.156;15.954;2023-07-29T07:12:53;0.90;;;0.70;;
37231;SDS011;23125;48.156;15.954;2023-07-29T07:15:19;1.27;;;0.82;;
37231;SDS011;23125;48.156;15.954;2023-07-29T07:17:45;1.10;;;0.70;;
37231;SDS011;23125;48.156;15.954;2023-07-29T07:20:11;2.03;;;0.80;;
37231;SDS011;23125;48.156;15.954;2023-07-29T07:22:37;1.45;;;0.90;;
37231;SDS011;23125;48.156;15.954;2023-07-29T07:25:02;1.00;;;0.73;;
37231;SDS011;23125;48.156;15.954;2023-07-29T07:27:29;1.08;;;0.93;;
37231;SDS011;23125;48.156;15.954;2023-07-29T07:29:55;1.98;;;0.85;;
37231;SDS011;23125;48.156;15.954;2023-07-29T07:32:21;1.02;;;0.75;;
37231;SDS011;23125;48.156;15.954;2023-07-29T07:34:47;1.10;;;0.80;;
37231;SDS011;23125;48.156;15.954;2023-07-29T07:37:12;1.45;;;0.82;;
37231;SDS011;23125;48.156;15.954;2023-07-29T07:39:38;1.67;;;0.60;;
37231;SDS011;23125;48.156;15.954;2023-07-29T07:42:04;1.50;;;0.77;;
37231;SDS011;23125;48.156;15.954;2023-07-29T07:44:30;1.63;;;0.90;;
37231;SDS011;23125;48.156;15.954;2023-07-29T07:46:56;1.25;;;0.90;;
37231;SDS011;23125;48.156;15.954;2023-07-29T07:49:22;1.58;;;0.82;;
37231;SDS011;23125;48.156;15.954;2023-07-29T07:51:48;1.00;;;0.73;;
37231;SDS011;23125;48.156;15.954;2023-07-29T07:54:14;1.00;;;0.90;;
37231;SDS011;23125;48.156;15.954;2023-07-29T07:56:39;1.08;;;0.63;;
37231;SDS011;23125;48.156;15.954;2023-07-29T07:59:05;0.63;;;0.52;;
37231;SDS011;23125;48.156;15.954;2023-07-29T08:01:35;1.15;;;0.60;;
37231;SDS011;23125;48.156;15.954;2023-07-29T08:04:02;1.33;;;0.82;;
37231;SDS011;23125;48.156;15.954;2023-07-29T08:06:28;1.10;;;0.80;;
37231;SDS011;23125;48.156;15.954;2023-07-29T08:08:54;1.08;;;0.80;;
37231;SDS011;23125;48.156;15.954;2023-07-29T08:11:20;3.08;;;0.88;;
37231;SDS011;23125;48.156;15.954;2023-07-29T08:13:46;1.92;;;0.80;;
37231;SDS011;23125;48.156;15.954;2023-07-29T08:16:12;1.08;;;0.98;;
37231;SDS011;23125;48.156;15.954;2023-07-29T08:18:38;1.40;;;0.70;;
37231;SDS011;23125;48.156;15.954;2023-07-29T08:21:04;1.13;;;0.82;;
37231;SDS011;23125;48.156;15.954;2023-07-29T08:23:31;1.35;;;0.70;;
37231;SDS011;23125;48.156;15.954;2023-07-29T08:26:01;1.65;;;0.73;;
37231;SDS011;23125;48.156;15.954;2023-07-29T08:28:37;1.33;;;0.95;;
37231;SDS011;23125;48.156;15.954;2023-07-29T08:31:04;1.77;;;1.20;;
37231;SDS011;23125;48.156;15.954;2023-07-29T08:33:31;1.83;;;0.70;;
37231;SDS011;23125;48.156;15.954;2023-07-29T08:36:01;1.10;;;0.68;;
37231;SDS011;23125;48.156;15.954;2023-07-29T08:38:27;2.00;;;0.80;;
37231;SDS011;23125;48.156;15.954;2023-07-29T08:40:55;1.13;;;0.80;;
37231;SDS011;23125;48.156;15.954;2023-07-29T08:43:38;1.73;;;0.90;;
37231;SDS011;23125;48.156;15.954;2023-07-29T08:46:08;1.52;;;0.80;;
37231;SDS011;23125;48.156;15.954;2023-07-29T08:48:42;1.27;;;1.00;;
37231;SDS011;23125;48.156;15.954;2023-07-29T08:51:09;1.67;;;0.80;;
37231;SDS011;23125;48.156;15.954;2023-07-29T08:53:36;1.35;;;0.80;;
37231;SDS011;23125;48.156;15.954;2023-07-29T08:56:02;1.20;;;0.77;;
37231;SDS011;23125;48.156;15.954;2023-07-29T08:58:30;0.85;;;0.70;;
37231;SDS011;23125;48.156;15.954;2023-07-29T09:00:57;1.55;;;0.98;;
37231;SDS011;23125;48.156;15.954;2023-07-29T09:03:23;1.90;;;1.00;;
37231;SDS011;23125;48.156;15.954;2023-07-29T09:05:49;1.42;;;0.93;;
37231;SDS011;23125;48.156;15.954;2023-07-29T09:08:16;2.95;;;0.70;;
37231;SDS011;23125;48.156;15.954;2023-07-29T09:10:42;0.90;;;0.80;;
37231;SDS011;23125;48.156;15.954;2023-07-29T09:13:08;1.40;;;0.80;;
37231;SDS011;23125;48.156;15.954;2023-07-29T09:15:35;1.23;;;0.82;;
37231;SDS011;23125;48.156;15.954;2023-07-29T09:18:15;0.98;;;0.77;;
37231;SDS011;23125;48.156;15.954;2023-07-29T09:20:43;1.15;;;0.88;;
37231;SDS011;23125;48.156;15.954;2023-07-29T09:23:11;1.00;;;0.68;;
37231;SDS011;23125;48.156;15.954;2023-07-29T09:25:37;1.30;;;0.73;;
37231;SDS011;23125;48.156;15.954;2023-07-29T09:28:10;1.67;;;0.80;;
37231;SDS011;23125;48.156;15.954;2023-07-29T09:30:40;0.95;;;0.77;;
37231;SDS011;23125;48.156;15.954;2023-07-29T09:33:11;1.13;;;0.65;;
37231;SDS011;23125;48.156;15.954;2023-07-29T09:35:37;1.00;;;0.70;;
37231;SDS011;23125;48.156;15.954;2023-07-29T09:38:04;1.52;;;0.77;;
37231;SDS011;23125;48.156;15.954;2023-07-29T09:40:34;1.08;;;0.80;;
37231;SDS011;23125;48.156;15.954;2023-07-29T09:43:01;1.20;;;0.82;;
37231;SDS011;23125;48.156;15.954;2023-07-29T09:45:27;1.38;;;0.70;;
37231;SDS011;23125;48.156;15.954;2023-07-29T09:47:53;1.48;;;0.80;;
37231;SDS011;23125;48.156;15.954;2023-07-29T09:50:24;0.50;;;0.40;;
37231;SDS011;23125;48.156;15.954;2023-07-29T09:52:52;1.02;;;0.60;;
37231;SDS011;23125;48.156;15.954;2023-07-29T09:55:19;0.93;;;0.57;;
37231;SDS011;23125;48.156;15.954;2023-07-29T09:57:52;0.80;;;0.60;;
37231;SDS011;23125;48.156;15.954;2023-07-29T10:02:54;1.05;;;0.60;;
37231;SDS011;23125;48.156;15.954;2023-07-29T10:05:21;1.05;;;0.57;;
37231;SDS011;23125;48.156;15.954;2023-07-29T10:07:48;2.63;;;0.93;;
37231;SDS011;23125;48.156;15.954;2023-07-29T10:10:15;1.98;;;0.80;;
37231;SDS011;23125;48.156;15.954;2023-07-29T10:12:42;1.30;;;0.70;;
37231;SDS011;23125;48.156;15.954;2023-07-29T10:15:08;1.00;;;0.70;;
37231;SDS011;23125;48.156;15.954;2023-07-29T10:17:35;1.35;;;0.93;;
37231;SDS011;23125;48.156;15.954;2023-07-29T10:20:06;1.35;;;0.90;;
37231;SDS011;23125;48.156;15.954;2023-07-29T10:22:38;1.05;;;0.70;;
37231;SDS011;23125;48.156;15.954;2023-07-29T10:25:09;1.20;;;0.60;;
37231;SDS011;23125;48.156;15.954;2023-07-29T10:30:18;1.15;;;0.77;;
37231;SDS011;23125;48.156;15.954;2023-07-29T10:32:45;0.90;;;0.60;;
37231;SDS011;23125;48.156;15.954;2023-07-29T10:35:12;1.13;;;0.80;;
37231;SDS011;23125;48.156;15.954;2023-07-29T10:37:39;1.23;;;0.70;;
37231;SDS011;23125;48.156;15.954;2023-07-29T10:40:07;1.85;;;0.80;;
37231;SDS011;23125;48.156;15.954;2023-07-29T10:42:34;1.10;;;0.87;;
37231;SDS011;23125;48.156;15.954;2023-07-29T10:45:20;1.23;;;0.70;;
37231;SDS011;23125;48.156;15.954;2023-07-29T10:47:47;1.52;;;0.90;;
37231;SDS011;23125;48.156;15.954;2023-07-29T10:50:17;1.73;;;0.80;;
37231;SDS011;23125;48.156;15.954;2023-07-29T10:52:48;1.50;;;0.60;;
37231;SDS011;23125;48.156;15.954;2023-07-29T10:55:24;1.42;;;1.00;;
37231;SDS011;23125;48.156;15.954;2023-07-29T10:57:52;1.27;;;0.80;;
37231;SDS011;23125;48.156;15.954;2023-07-29T11:00:30;1.15;;;0.75;;
37231;SDS011;23125;48.156;15.954;2023-07-29T11:03:04;1.63;;;0.82;;
37231;SDS011;23125;48.156;15.954;2023-07-29T11:05:47;0.98;;;0.70;;
37231;SDS011;23125;48.156;15.954;2023-07-29T11:13:33;1.10;;;0.73;;
37231;SDS011;23125;48.156;15.954;2023-07-29T11:18:33;1.05;;;0.70;;
37231;SDS011;23125;48.156;15.954;2023-07-29T11:21:01;2.22;;;1.48;;
37231;SDS011;23125;48.156;15.954;2023-07-29T11:23:32;1.45;;;0.95;;
37231;SDS011;23125;48.156;15.954;2023-07-29T11:26:00;1.25;;;0.85;;
37231;SDS011;23125;48.156;15.954;2023-07-29T11:28:27;1.95;;;0.77;;
37231;SDS011;23125;48.156;15.954;2023-07-29T11:30:54;1.40;;;0.77;;
37231;SDS011;23125;48.156;15.954;2023-07-29T11:33:21;2.05;;;0.80;;
37231;SDS011;23125;48.156;15.954;2023-07-29T11:35:53;0.90;;;0.75;;
37231;SDS011;23125;48.156;15.954;2023-07-29T11:38:20;2.45;;;0.80;;
37231;SDS011;23125;48.156;15.954;2023-07-29T11:40:56;1.35;;;0.80;;
37231;SDS011;23125;48.156;15.954;2023-07-29T11:43:28;1.35;;;0.95;;
37231;SDS011;23125;48.156;15.954;2023-07-29T11:45:53;1.45;;;0.73;;
37231;SDS011;23125;48.156;15.954;2023-07-29T11:48:30;1.35;;;1.00;;
37231;SDS011;23125;48.156;15.954;2023-07-29T11:50:57;1.33;;;0.90;;
37231;SDS011;23125;48.156;15.954;2023-07-29T11:53:25;1.65;;;0.90;;
37231;SDS011;23125;48.156;15.954;2023-07-29T11:55:58;4.10;;;1.00;;
37231;SDS011;23125;48.156;15.954;2023-07-29T11:58:24;2.47;;;0.95;;
37231;SDS011;23125;48.156;15.954;2023-07-29T12:00:51;1.65;;;1.00;;
37231;SDS011;23125;48.156;15.954;2023-07-29T12:03:17;2.65;;;1.02;;
37231;SDS011;23125;48.156;15.954;2023-07-29T12:05:43;1.70;;;1.05;;
37231;SDS011;23125;48.156;15.954;2023-07-29T12:08:10;3.13;;;1.08;;
37231;SDS011;23125;48.156;15.954;2023-07-29T12:10:36;1.88;;;1.00;;
37231;SDS011;23125;48.156;15.954;2023-07-29T12:13:03;1.63;;;0.80;;
37231;SDS011;23125;48.156;15.954;2023-07-29T12:15:29;2.05;;;0.98;;
37231;SDS011;23125;48.156;15.954;2023-07-29T12:17:56;1.30;;;0.82;;
37231;SDS011;23125;48.156;15.954;2023-07-29T12:20:23;1.40;;;0.90;;
37231;SDS011;23125;48.156;15.954;2023-07-29T12:22:54;2.05;;;1.00;;
37231;SDS011;23125;48.156;15.954;2023-07-29T12:25:26;1.67;;;1.05;;
37231;SDS011;23125;48.156;15.954;2023-07-29T12:27:52;0.88;;;0.68;;
37231;SDS011;23125;48.156;15.954;2023-07-29T12:30:21;1.20;;;0.80;;
37231;SDS011;23125;48.156;15.954;2023-07-29T12:32:50;1.88;;;0.80;;
37231;SDS011;23125;48.156;15.954;2023-07-29T12:35:15;2.72;;;1.60;;
37231;SDS011;23125;48.156;15.954;2023-07-29T12:37:41;1.55;;;1.00;;
37231;SDS011;23125;48.156;15.954;2023-07-29T12:40:29;1.80;;;1.00;;
37231;SDS011;23125;48.156;15.954;2023-07-29T12:42:54;1.52;;;1.00;;
37231;SDS011;23125;48.156;15.954;2023-07-29T12:45:21;2.95;;;0.82;;
37231;SDS011;23125;48.156;15.954;2023-07-29T12:47:52;1.50;;;1.00;;
37231;SDS011;23125;48.156;15.954;2023-07-29T12:50:18;1.10;;;0.98;;
37231;SDS011;23125;48.156;15.954;2023-07-29T12:52:44;1.67;;;1.10;;
37231;SDS011;23125;48.156;15.954;2023-07-29T12:55:09;1.55;;;1.00;;
37231;SDS011;23125;48.156;15.954;2023-07-29T12:57:39;1.58;;;1.05;;
37231;SDS011;23125;48.156;15.954;2023-07-29T13:00:06;2.35;;;1.00;;
37231;SDS011;23125;48.156;15.954;2023-07-29T13:02:34;1.70;;;1.13;;
37231;SDS011;23125;48.156;15.954;2023-07-29T13:05:00;1.40;;;0.95;;
37231;SDS011;23125;48.156;15.954;2023-07-29T13:07:25;1.48;;;0.98;;
37231;SDS011;23125;48.156;15.954;2023-07-29T13:09:51;1.58;;;1.10;;
37231;SDS011;23125;48.156;15.954;2023-07-29T13:12:17;2.47;;;1.35;;
37231;SDS011;23125;48.156;15.954;2023-07-29T13:14:43;1.42;;;0.88;;
37231;SDS011;23125;48.156;15.954;2023-07-29T13:17:09;1.88;;;1.30;;
37231;SDS011;23125;48.156;15.954;2023-07-29T13:19:35;2.38;;;1.27;;
37231;SDS011;23125;48.156;15.954;2023-07-29T13:22:00;1.58;;;1.17;;
37231;SDS011;23125;48.156;15.954;2023-07-29T13:24:27;2.60;;;1.20;;
37231;SDS011;23125;48.156;15.954;2023-07-29T13:26:53;2.42;;;1.42;;
37231;SDS011;23125;48.156;15.954;2023-07-29T13:29:19;1.77;;;1.17;;
37231;SDS011;23125;48.156;15.954;2023-07-29T13:31:45;1.60;;;1.10;;
37231;SDS011;23125;48.156;15.954;2023-07-29T13:34:10;1.45;;;0.90;;
37231;SDS011;23125;48.156;15.954;2023-07-29T13:36:36;3.17;;;1.30;;
37231;SDS011;23125;48.156;15.954;2023-07-29T13:39:02;3.70;;;1.60;;
37231;SDS011;23125;48.156;15.954;2023-07-29T13:41:28;2.63;;;1.10;;
37231;SDS011;23125;48.156;15.954;2023-07-29T13:43:54;1.90;;;0.88;;
37231;SDS011;23125;48.156;15.954;2023-07-29T13:46:19;2.13;;;1.42;;
37231;SDS011;23125;48.156;15.954;2023-07-29T13:48:46;2.33;;;1.30;;
37231;SDS011;23125;48.156;15.954;2023-07-29T13:51:12;4.82;;;1.70;;
37231;SDS011;23125;48.156;15.954;2023-07-29T13:53:38;3.95;;;2.17;;
37231;SDS011;23125;48.156;15.954;2023-07-29T13:56:04;2.35;;;1.48;;
37231;SDS011;23125;48.156;15.954;2023-07-29T13:58:30;2.70;;;1.30;;
37231;SDS011;23125;48.156;15.954;2023-07-29T14:00:56;2.58;;;1.23;;
37231;SDS011;23125;48.156;15.954;2023-07-29T14:03:21;1.60;;;0.90;;
37231;SDS011;23125;48.156;15.954;2023-07-29T14:05:47;1.70;;;1.10;;
37231;SDS011;23125;48.156;15.954;2023-07-29T14:08:13;2.00;;;1.02;;
37231;SDS011;23125;48.156;15.954;2023-07-29T14:10:39;2.03;;;1.30;;
37231;SDS011;23125;48.156;15.954;2023-07-29T14:13:05;2.60;;;1.42;;
37231;SDS011;23125;48.156;15.954;2023-07-29T14:15:30;2.03;;;1.52;;
37231;SDS011;23125;48.156;15.954;2023-07-29T14:17:57;1.83;;;1.25;;
37231;SDS011;23125;48.156;15.954;2023-07-29T14:20:23;1.80;;;1.27;;
37231;SDS011;23125;48.156;15.954;2023-07-29T14:22:49;2.13;;;1.33;;
37231;SDS011;23125;48.156;15.954;2023-07-29T14:25:15;2.38;;;1.67;;
37231;SDS011;23125;48.156;15.954;2023-07-29T14:27:41;2.35;;;1.30;;
37231;SDS011;23125;48.156;15.954;2023-07-29T14:30:07;4.30;;;1.70;;
37231;SDS011;23125;48.156;15.954;2023-07-29T14:32:33;1.83;;;1.30;;
37231;SDS011;23125;48.156;15.954;2023-07-29T14:34:59;3.38;;;1.38;;
37231;SDS011;23125;48.156;15.954;2023-07-29T14:37:29;1.77;;;1.45;;
37231;SDS011;23125;48.156;15.954;2023-07-29T14:39:57;1.80;;;1.40;;
37231;SDS011;23125;48.156;15.954;2023-07-29T14:42:23;1.95;;;1.65;;
37231;SDS011;23125;48.156;15.954;2023-07-29T14:44:49;2.38;;;1.48;;
37231;SDS011;23125;48.156;15.954;2023-07-29T14:47:15;2.17;;;1.30;;
37231;SDS011;23125;48.156;15.954;2023-07-29T14:49:41;3.33;;;2.08;;
37231;SDS011;23125;48.156;15.954;2023-07-29T14:52:07;2.33;;;1.50;;
37231;SDS011;23125;48.156;15.954;2023-07-29T14:54:33;1.92;;;1.40;;
37231;SDS011;23125;48.156;15.954;2023-07-29T14:56:58;2.83;;;1.70;;
37231;SDS011;23125;48.156;15.954;2023-07-29T14:59:24;2.45;;;1.70;;